Time;durP1;ratioP1;P1;durP2;ratioP2;P2;SDS_P1;SDS_P2;PMS_P1;PMS_P2;Temp;Humidity;BMP_temperature;BMP_pressure;BME280_temperature;BME280_humidity;BME280_pressure;Samples;Min_cycle;Max_cycle;Signal;HPM_P1;HPM_P2
2022/04/09 00:01:26;;;;;;;3.72;1.85;;;15.80;97.90;;;;;;4958431;29;20059;-47
2022/04/09 00:03:51;;;;;;;4.30;1.70;;;15.80;97.90;;;;;;4972853;28;20098;-47
2022/04/09 00:06:17;;;;;;;3.17;1.60;;;15.70;97.80;;;;;;4958375;29;20059;-47
2022/04/09 00:08:43;;;;;;;2.83;1.77;;;15.80;97.70;;;;;;4958251;29;20476;-47
2022/04/09 00:11:09;;;;;;;2.70;1.80;;;15.80;97.80;;;;;;4958765;29;20106;-47
2022/04/09 00:13:36;;;;;;;3.13;1.80;;;15.80;97.90;;;;;;4972641;28;20576;-48
2022/04/09 00:16:02;;;;;;;5.45;2.85;;;15.80;98.20;;;;;;4958422;28;20031;-47
2022/04/09 00:18:28;;;;;;;4.88;2.60;;;15.90;98.10;;;;;;4958345;28;20503;-47
2022/04/09 00:20:55;;;;;;;3.72;1.90;;;16.00;97.80;;;;;;4958054;28;20490;-47
2022/04/09 00:23:23;;;;;;;4.57;2.30;;;16.00;97.90;;;;;;4956334;29;20043;-47
2022/04/09 00:25:49;;;;;;;4.68;1.70;;;16.00;97.90;;;;;;4958161;28;20093;-47
2022/04/09 00:28:15;;;;;;;4.32;1.85;;;16.00;98.10;;;;;;4958012;28;20090;-47
2022/04/09 00:30:41;;;;;;;2.65;1.67;;;15.90;98.60;;;;;;4957965;29;20031;-48
2022/04/09 00:33:07;;;;;;;5.15;2.13;;;15.70;98.80;;;;;;4924551;29;20051;-47
2022/04/09 00:35:33;;;;;;;3.35;1.75;;;15.70;99.10;;;;;;4957901;28;20031;-47
2022/04/09 00:37:59;;;;;;;6.10;2.50;;;15.80;98.80;;;;;;4958446;28;20057;-48
2022/04/09 00:40:26;;;;;;;4.15;2.10;;;15.90;98.70;;;;;;4957689;28;20039;-47
2022/04/09 00:42:52;;;;;;;3.30;1.63;;;16.00;98.40;;;;;;4958194;28;20073;-47
2022/04/09 00:45:18;;;;;;;2.83;1.50;;;16.00;98.50;;;;;;4956715;28;20396;-47
2022/04/09 00:47:45;;;;;;;2.88;1.50;;;16.10;98.50;;;;;;4939892;29;20046;-47
2022/04/09 00:50:11;;;;;;;5.13;2.00;;;16.10;99.00;;;;;;4957634;28;20122;-47
2022/04/09 00:52:40;;;;;;;5.85;2.30;;;15.80;99.80;;;;;;4971968;28;20047;-47
2022/04/09 00:55:07;;;;;;;5.93;2.42;;;15.70;99.70;;;;;;4957583;28;20034;-47
2022/04/09 00:57:34;;;;;;;3.53;1.98;;;15.60;99.80;;;;;;4957627;28;20027;-47
2022/04/09 01:00:09;;;;;;;3.40;1.70;;;15.60;99.80;;;;;;4955600;29;20039;-47
2022/04/09 01:02:39;;;;;;;3.90;2.03;;;15.60;99.80;;;;;;4940423;29;20067;-47
2022/04/09 01:05:05;;;;;;;3.80;1.73;;;15.60;99.70;;;;;;4957222;28;20543;-47
2022/04/09 01:07:32;;;;;;;4.85;1.75;;;15.50;99.80;;;;;;4938753;29;20063;-47
2022/04/09 01:09:58;;;;;;;3.75;2.17;;;15.50;99.90;;;;;;4957011;28;20028;-48
2022/04/09 01:12:24;;;;;;;2.90;1.90;;;15.50;99.90;;;;;;4957253;29;20090;-47
2022/04/09 01:14:50;;;;;;;5.40;1.80;;;15.50;99.90;;;;;;4957140;29;20046;-48
2022/04/09 01:17:16;;;;;;;4.28;2.13;;;15.60;99.90;;;;;;4923714;29;20392;-47
2022/04/09 01:19:41;;;;;;;3.97;1.98;;;15.70;99.90;;;;;;4971364;28;20032;-47
2022/04/09 01:22:07;;;;;;;5.32;2.08;;;15.80;99.90;;;;;;4957017;28;20538;-48
2022/04/09 01:24:33;;;;;;;7.63;2.28;;;15.80;99.90;;;;;;4971330;28;20039;-47
2022/04/09 01:26:59;;;;;;;3.53;1.75;;;15.90;99.90;;;;;;4971274;28;20054;-47
2022/04/09 01:29:25;;;;;;;3.53;1.70;;;15.80;99.90;;;;;;4923092;29;20415;-47
2022/04/09 01:31:51;;;;;;;3.58;1.92;;;15.70;99.90;;;;;;4971394;28;20566;-47
2022/04/09 01:34:16;;;;;;;5.65;1.73;;;15.80;99.90;;;;;;4938650;29;20131;-48
2022/04/09 01:36:42;;;;;;;26.25;7.88;;;15.80;99.90;;;;;;4956815;29;20027;-48
2022/04/09 01:39:08;;;;;;;24.70;9.00;;;15.90;99.90;;;;;;4971285;28;20051;-49
2022/04/09 01:41:34;;;;;;;20.83;7.40;;;16.00;99.90;;;;;;4955103;29;20106;-47
2022/04/09 01:43:59;;;;;;;8.73;3.35;;;16.10;99.90;;;;;;4970934;28;20567;-47
2022/04/09 01:46:25;;;;;;;8.30;3.38;;;16.10;99.90;;;;;;4938927;29;20507;-47
2022/04/09 01:48:51;;;;;;;5.95;2.38;;;16.20;99.90;;;;;;4956633;29;20031;-47
2022/04/09 01:51:16;;;;;;;10.10;4.82;;;16.20;99.90;;;;;;4956381;28;20065;-47
2022/04/09 01:53:42;;;;;;;8.15;3.33;;;16.20;99.90;;;;;;4956720;29;20041;-47
2022/04/09 01:56:08;;;;;;;7.00;2.58;;;16.20;99.90;;;;;;4956348;29;20027;-47
2022/04/09 01:58:34;;;;;;;7.78;2.88;;;16.20;99.90;;;;;;4970808;28;20114;-47
2022/04/09 02:00:59;;;;;;;7.90;3.75;;;16.30;99.90;;;;;;4956691;29;20483;-47
2022/04/09 02:03:26;;;;;;;10.43;4.65;;;16.30;99.90;;;;;;4956398;29;20055;-47
2022/04/09 02:05:52;;;;;;;12.02;4.68;;;16.20;99.90;;;;;;4938151;29;20082;-47
2022/04/09 02:08:18;;;;;;;7.63;3.33;;;16.20;99.90;;;;;;4956324;29;20499;-48
2022/04/09 02:10:43;;;;;;;11.48;3.90;;;16.20;99.90;;;;;;4938456;29;20119;-47
2022/04/09 02:13:13;;;;;;;20.20;5.75;;;16.30;99.90;;;;;;4956015;29;20483;-47
2022/04/09 02:15:39;;;;;;;12.65;4.15;;;16.20;99.90;;;;;;4956318;29;20023;-47
2022/04/09 02:18:05;;;;;;;17.23;7.05;;;16.20;99.90;;;;;;4956279;28;20074;-48
2022/04/09 02:20:32;;;;;;;35.95;13.27;;;16.10;99.90;;;;;;4938051;29;20448;-47
2022/04/09 02:22:58;;;;;;;29.38;10.77;;;16.10;99.90;;;;;;4956308;28;20036;-47
2022/04/09 02:25:23;;;;;;;21.98;7.78;;;16.10;99.90;;;;;;4955879;28;20034;-47
2022/04/09 02:27:49;;;;;;;31.27;10.77;;;16.10;99.90;;;;;;4955944;28;20023;-47
2022/04/09 02:30:15;;;;;;;13.35;4.80;;;16.10;99.90;;;;;;4970081;28;20041;-48
2022/04/09 02:32:46;;;;;;;30.95;12.02;;;16.10;99.90;;;;;;4938020;29;20066;-47
2022/04/09 02:35:12;;;;;;;27.75;9.00;;;16.20;99.90;;;;;;4955822;28;20020;-48
2022/04/09 02:37:39;;;;;;;51.00;17.60;;;16.20;99.90;;;;;;4956196;28;20055;-47
2022/04/09 02:40:05;;;;;;;72.47;25.17;;;16.20;99.90;;;;;;4954613;29;20170;-47
2022/04/09 02:42:31;;;;;;;77.70;27.00;;;16.20;99.90;;;;;;4955620;28;20387;-47
2022/04/09 02:44:57;;;;;;;53.30;19.15;;;16.10;99.90;;;;;;4955736;29;20029;-47
2022/04/09 02:47:22;;;;;;;25.23;10.07;;;16.10;99.90;;;;;;4969772;28;20039;-48
2022/04/09 02:49:49;;;;;;;22.35;10.65;;;16.10;99.90;;;;;;4955496;29;20027;-47
2022/04/09 02:52:14;;;;;;;17.92;7.47;;;16.00;99.90;;;;;;4955383;28;20391;-48
2022/04/09 02:54:40;;;;;;;14.63;7.45;;;16.00;99.90;;;;;;4955565;28;20031;-47
2022/04/09 02:57:06;;;;;;;16.17;7.95;;;15.90;99.90;;;;;;4937599;29;20072;-47
2022/04/09 02:59:32;;;;;;;15.55;8.82;;;15.90;99.90;;;;;;4955273;28;20039;-47
2022/04/09 03:01:58;;;;;;;18.17;6.47;;;15.90;99.90;;;;;;4937803;29;20036;-47
2022/04/09 03:04:24;;;;;;;11.57;4.47;;;15.90;99.90;;;;;;4955318;28;20402;-47
2022/04/09 03:06:49;;;;;;;12.13;3.78;;;15.90;99.90;;;;;;4955090;29;20059;-47
2022/04/09 03:09:15;;;;;;;4.38;2.15;;;15.80;99.90;;;;;;4955302;29;20034;-47
2022/04/09 03:11:41;;;;;;;5.13;2.20;;;15.50;99.90;;;;;;4954947;28;20046;-47
2022/04/09 03:14:07;;;;;;;7.32;1.92;;;15.40;99.90;;;;;;4969587;28;20368;-47
2022/04/09 03:16:32;;;;;;;6.00;1.98;;;15.40;99.90;;;;;;4955192;28;20490;-47
2022/04/09 03:18:58;;;;;;;5.75;3.38;;;15.40;99.90;;;;;;4955313;28;20050;-47
2022/04/09 03:21:24;;;;;;;6.93;3.50;;;15.50;99.90;;;;;;4955015;29;20027;-48
2022/04/09 03:23:50;;;;;;;13.95;6.65;;;15.70;99.90;;;;;;4955529;28;20031;-47
2022/04/09 03:26:15;;;;;;;10.13;5.28;;;15.70;99.90;;;;;;4955150;29;20031;-47
2022/04/09 03:28:41;;;;;;;11.45;4.10;;;15.70;99.90;;;;;;4955050;29;20023;-47
2022/04/09 03:31:10;;;;;;;9.00;4.20;;;15.70;99.90;;;;;;4955665;28;20031;-47
2022/04/09 03:33:36;;;;;;;8.52;4.35;;;15.70;99.90;;;;;;4958998;28;20066;-47
2022/04/09 03:36:02;;;;;;;6.70;3.03;;;15.70;99.90;;;;;;4959532;28;20472;-47
2022/04/09 03:38:28;;;;;;;9.95;2.85;;;15.80;99.90;;;;;;4973357;28;20480;-48
2022/04/09 03:40:54;;;;;;;7.28;2.45;;;15.80;99.90;;;;;;4959146;29;20052;-47
2022/04/09 03:43:19;;;;;;;5.88;2.20;;;15.90;99.90;;;;;;4973305;28;20183;-47
2022/04/09 03:45:45;;;;;;;6.32;2.80;;;15.80;99.90;;;;;;4958720;29;20035;-47
2022/04/09 03:48:11;;;;;;;5.15;2.20;;;15.80;99.90;;;;;;4958989;29;20082;-47
2022/04/09 03:50:37;;;;;;;3.72;2.28;;;15.70;99.90;;;;;;4940695;29;20142;-48
2022/04/09 03:53:03;;;;;;;5.60;2.38;;;15.70;99.90;;;;;;4958929;28;20039;-47
2022/04/09 03:55:29;;;;;;;7.53;2.30;;;15.70;99.90;;;;;;4958725;28;20114;-47
2022/04/09 03:57:58;;;;;;;7.68;2.92;;;15.70;99.90;;;;;;4958444;29;20028;-47
2022/04/09 04:00:24;;;;;;;11.20;4.13;;;15.70;99.90;;;;;;4959025;28;20027;-47
2022/04/09 04:02:51;;;;;;;6.13;2.70;;;15.70;99.90;;;;;;4958381;29;20045;-47
2022/04/09 04:05:17;;;;;;;9.88;3.45;;;15.70;99.90;;;;;;4958458;28;20395;-47
2022/04/09 04:07:46;;;;;;;6.10;2.28;;;15.70;99.90;;;;;;4958626;28;20475;-47
2022/04/09 04:10:12;;;;;;;10.63;2.80;;;15.70;99.90;;;;;;4957173;29;20387;-47
2022/04/09 04:12:40;;;;;;;6.68;2.45;;;15.80;99.90;;;;;;4958113;28;20039;-47
2022/04/09 04:15:07;;;;;;;6.53;2.47;;;15.80;99.90;;;;;;4956843;29;20043;-47
2022/04/09 04:17:43;;;;;;;4.20;2.05;;;15.90;99.90;;;;;;4940464;29;20494;-48
2022/04/09 04:20:10;;;;;;;4.03;2.15;;;15.90;99.90;;;;;;4958489;28;20398;-47
2022/04/09 04:22:36;;;;;;;7.90;3.03;;;15.90;99.90;;;;;;4958427;28;20593;-51
2022/04/09 04:25:06;;;;;;;5.82;2.00;;;16.00;99.90;;;;;;4958179;28;20038;-47
2022/04/09 04:27:32;;;;;;;4.53;2.08;;;16.00;99.90;;;;;;4972557;28;20075;-47
2022/04/09 04:30:03;;;;;;;9.68;2.90;;;16.10;99.90;;;;;;4957968;29;20406;-47
2022/04/09 04:32:29;;;;;;;6.27;2.63;;;16.10;99.90;;;;;;4956035;29;20264;-47
2022/04/09 04:34:55;;;;;;;8.40;2.83;;;16.10;99.90;;;;;;4970773;28;20129;-47
2022/04/09 04:37:21;;;;;;;6.07;3.10;;;16.10;99.90;;;;;;4975348;28;20060;-47
2022/04/09 04:39:47;;;;;;;5.22;2.70;;;16.10;99.90;;;;;;4975258;28;20104;-48
2022/04/09 04:42:13;;;;;;;7.25;3.60;;;16.10;99.90;;;;;;4963301;28;20050;-47
2022/04/09 04:44:38;;;;;;;10.57;3.63;;;16.20;99.90;;;;;;4976503;28;20026;-47
2022/04/09 04:47:04;;;;;;;6.65;3.58;;;16.20;99.90;;;;;;4974850;28;20050;-47
2022/04/09 04:49:30;;;;;;;9.15;4.43;;;16.30;99.90;;;;;;4943016;28;20035;-47
2022/04/09 04:51:56;;;;;;;11.07;4.40;;;16.30;99.90;;;;;;4976827;28;20442;-47
2022/04/09 04:54:22;;;;;;;8.20;3.53;;;16.30;99.90;;;;;;4977184;28;20101;-47
2022/04/09 04:56:48;;;;;;;6.63;3.58;;;16.40;99.90;;;;;;4976764;28;20023;-48
2022/04/09 04:59:15;;;;;;;7.00;3.17;;;16.40;99.90;;;;;;4958770;28;20043;-47
2022/04/09 05:01:41;;;;;;;5.35;3.35;;;16.40;99.90;;;;;;4976784;28;20109;-47
2022/04/09 05:04:07;;;;;;;4.63;2.20;;;16.50;99.90;;;;;;4976459;28;20121;-47
2022/04/09 05:06:33;;;;;;;9.23;2.83;;;16.50;99.90;;;;;;4975403;28;20047;-47
2022/04/09 05:08:59;;;;;;;5.28;2.45;;;16.60;99.90;;;;;;4974767;28;20041;-47
2022/04/09 05:11:25;;;;;;;5.60;2.47;;;16.70;99.90;;;;;;4976448;28;20387;-47
2022/04/09 05:13:50;;;;;;;6.22;2.40;;;16.70;99.90;;;;;;4957251;28;20047;-48
2022/04/09 05:16:16;;;;;;;6.45;2.63;;;16.80;99.90;;;;;;4973155;28;20442;-47
2022/04/09 05:18:42;;;;;;;7.95;2.70;;;16.80;99.90;;;;;;4974637;28;20068;-47
2022/04/09 05:21:08;;;;;;;7.78;2.88;;;16.80;99.90;;;;;;4975926;28;20149;-47
2022/04/09 05:23:33;;;;;;;7.50;3.00;;;16.90;99.90;;;;;;4976166;28;20029;-47
2022/04/09 05:25:59;;;;;;;8.80;4.90;;;16.90;99.90;;;;;;4972738;28;20030;-48
2022/04/09 05:28:25;;;;;;;10.45;5.70;;;16.90;99.90;;;;;;4974936;28;20042;-47
2022/04/09 05:30:51;;;;;;;10.27;5.32;;;16.90;99.90;;;;;;4973827;28;20049;-47
2022/04/09 05:33:18;;;;;;;9.32;3.88;;;17.00;99.90;;;;;;4957884;28;20496;-47
2022/04/09 05:35:43;;;;;;;12.32;3.80;;;17.10;99.90;;;;;;4976198;28;20023;-47
2022/04/09 05:38:09;;;;;;;11.55;4.32;;;17.10;99.90;;;;;;4973777;28;20034;-47
2022/04/09 05:40:36;;;;;;;9.40;4.47;;;17.20;99.90;;;;;;4974546;28;20482;-47
2022/04/09 05:43:02;;;;;;;9.57;3.95;;;17.00;99.90;;;;;;4957311;28;20058;-48
2022/04/09 05:45:28;;;;;;;6.03;2.80;;;17.00;99.90;;;;;;4975573;28;20481;-48
2022/04/09 05:47:54;;;;;;;8.82;2.95;;;17.30;99.90;;;;;;4973557;28;20055;-47
2022/04/09 05:50:20;;;;;;;5.63;2.50;;;17.30;99.90;;;;;;4974641;28;20037;-50
2022/04/09 05:52:46;;;;;;;10.02;3.38;;;17.30;99.90;;;;;;4976104;28;20042;-46
2022/04/09 05:55:12;;;;;;;6.38;2.50;;;17.60;99.90;;;;;;4957419;28;20043;-45
2022/04/09 05:57:39;;;;;;;7.78;3.58;;;17.80;99.90;;;;;;4972538;28;20038;-45
2022/04/09 06:00:07;;;;;;;7.07;2.45;;;18.00;99.90;;;;;;4975655;28;20165;-46
2022/04/09 06:02:34;;;;;;;6.03;2.85;;;18.20;99.90;;;;;;4956568;28;20038;-46
2022/04/09 06:05:00;;;;;;;7.35;2.63;;;17.70;99.90;;;;;;4975726;28;20038;-45
2022/04/09 06:07:26;;;;;;;7.60;3.10;;;17.80;99.90;;;;;;4973481;28;20055;-45
2022/04/09 06:09:52;;;;;;;7.85;3.35;;;18.00;99.90;;;;;;4957413;28;20109;-45
2022/04/09 06:12:18;;;;;;;11.57;3.80;;;;;;;;;;4973550;28;20123;-46
2022/04/09 06:14:44;;;;;;;10.40;3.70;;;18.10;99.90;;;;;;4973329;28;20773;-46
2022/04/09 06:17:10;;;;;;;8.00;2.80;;;;;;;;;;4972078;28;20121;-45
2022/04/09 06:19:36;;;;;;;11.63;3.75;;;18.30;99.90;;;;;;4972197;28;20050;-45
2022/04/09 06:22:02;;;;;;;9.93;3.97;;;18.60;99.90;;;;;;4974304;28;20042;-45
2022/04/09 06:24:28;;;;;;;7.22;3.00;;;;;;;;;;4971783;28;20081;-45
2022/04/09 06:26:54;;;;;;;9.85;3.75;;;18.70;99.90;;;;;;4974398;28;20062;-45
2022/04/09 06:29:20;;;;;;;11.63;4.22;;;19.00;99.90;;;;;;4971867;28;20074;-46
2022/04/09 06:31:47;;;;;;;9.43;3.08;;;19.00;99.90;;;;;;4971907;28;20050;-45
2022/04/09 06:34:14;;;;;;;8.57;3.20;;;19.20;99.90;;;;;;4974013;28;20495;-46
2022/04/09 06:36:40;;;;;;;9.68;3.78;;;19.10;99.90;;;;;;4972250;28;20105;-45
2022/04/09 06:39:06;;;;;;;6.25;2.88;;;19.50;99.60;;;;;;4971971;28;20778;-46
2022/04/09 06:41:33;;;;;;;8.18;5.07;;;19.70;98.80;;;;;;4974002;28;20062;-46
2022/04/09 06:43:59;;;;;;;7.88;3.05;;;19.70;98.90;;;;;;4973942;28;20058;-46
2022/04/09 06:46:25;;;;;;;6.30;2.70;;;19.80;99.00;;;;;;4963201;28;20120;-46
2022/04/09 06:48:52;;;;;;;4.20;2.58;;;;;;;;;;4949247;29;20035;-46
2022/04/09 06:51:18;;;;;;;3.80;2.42;;;20.00;98.10;;;;;;4951015;29;20059;-46
2022/04/09 06:53:44;;;;;;;9.45;2.65;;;20.00;97.60;;;;;;4950580;29;20066;-45
2022/04/09 06:56:10;;;;;;;8.05;2.65;;;20.00;97.60;;;;;;4914200;29;20106;-46
2022/04/09 06:58:36;;;;;;;5.10;2.03;;;20.10;97.80;;;;;;4949520;29;20039;-46
2022/04/09 07:01:02;;;;;;;6.00;2.08;;;20.20;98.20;;;;;;4950707;29;20515;-46
2022/04/09 07:03:29;;;;;;;6.30;2.50;;;20.30;98.10;;;;;;4951655;29;20035;-45
2022/04/09 07:05:55;;;;;;;5.50;2.22;;;20.40;98.10;;;;;;4946578;28;20118;-46
2022/04/09 07:08:21;;;;;;;20.33;4.50;;;20.60;99.80;;;;;;4951546;29;20118;-46
2022/04/09 07:10:47;;;;;;;7.22;2.47;;;20.60;98.30;;;;;;4951406;29;20035;-46
2022/04/09 07:13:13;;;;;;;7.60;2.42;;;20.50;98.20;;;;;;4949535;29;20050;-46
2022/04/09 07:15:39;;;;;;;7.05;3.17;;;20.70;97.00;;;;;;4934317;29;20184;-46
2022/04/09 07:18:04;;;;;;;4.13;1.95;;;20.80;97.20;;;;;;4951883;29;20027;-45
2022/04/09 07:20:33;;;;;;;6.28;1.88;;;20.90;99.90;;;;;;4968300;28;20042;-46
2022/04/09 07:22:59;;;;;;;5.75;2.05;;;21.00;97.30;;;;;;4972402;28;20042;-46
2022/04/09 07:25:25;;;;;;;3.47;1.80;;;21.10;97.20;;;;;;4972773;28;20066;-47
2022/04/09 07:27:51;;;;;;;7.95;2.10;;;21.20;96.30;;;;;;4952210;28;20070;-46
2022/04/09 07:30:19;;;;;;;5.40;1.95;;;21.20;96.40;;;;;;4971714;28;20038;-46
2022/04/09 07:32:46;;;;;;;6.53;2.88;;;21.30;95.60;;;;;;4972681;28;20070;-45
2022/04/09 07:35:12;;;;;;;3.67;1.65;;;21.40;95.70;;;;;;4972792;28;20030;-46
2022/04/09 07:37:43;;;;;;;7.35;2.83;;;21.50;95.90;;;;;;4962668;28;20042;-45
2022/04/09 07:40:10;;;;;;;5.10;1.90;;;21.50;95.50;;;;;;4954396;28;20483;-46
2022/04/09 07:42:36;;;;;;;6.22;2.00;;;21.70;95.40;;;;;;4955096;28;20565;-45
2022/04/09 07:45:03;;;;;;;5.50;2.03;;;21.70;95.60;;;;;;4972851;28;20033;-46
2022/04/09 07:47:30;;;;;;;5.57;1.70;;;21.80;95.60;;;;;;4973034;28;20058;-46
2022/04/09 07:49:55;;;;;;;3.72;1.98;;;21.90;95.60;;;;;;4973172;28;20033;-46
2022/04/09 07:52:21;;;;;;;3.22;1.70;;;21.90;94.70;;;;;;4973069;28;20035;-45
2022/04/09 07:54:47;;;;;;;5.13;1.67;;;21.80;94.40;;;;;;4954759;28;20109;-46
2022/04/09 07:57:13;;;;;;;5.88;2.00;;;21.90;94.20;;;;;;4970133;28;20403;-46
2022/04/09 07:59:38;;;;;;;5.60;2.17;;;21.90;94.30;;;;;;4970428;28;20038;-46
2022/04/09 08:02:05;;;;;;;3.88;1.83;;;22.20;94.70;;;;;;4971072;28;20035;-46
2022/04/09 08:04:31;;;;;;;5.03;2.30;;;22.30;94.10;;;;;;4954988;28;20031;-46
2022/04/09 08:06:56;;;;;;;6.55;2.10;;;22.40;94.20;;;;;;4970639;28;20049;-45
2022/04/09 08:09:22;;;;;;;6.15;2.38;;;22.40;94.70;;;;;;4973306;28;20027;-45
2022/04/09 08:11:48;;;;;;;5.68;2.40;;;22.50;94.00;;;;;;4972781;28;20023;-46
2022/04/09 08:14:14;;;;;;;5.30;2.30;;;22.60;93.60;;;;;;4973291;28;20034;-46
2022/04/09 08:16:40;;;;;;;4.78;1.88;;;22.90;94.40;;;;;;4938092;28;20030;-46
2022/04/09 08:19:07;;;;;;;4.97;1.80;;;23.30;94.00;;;;;;4976445;28;20064;-46
2022/04/09 08:21:33;;;;;;;4.90;2.22;;;23.60;93.80;;;;;;4976802;28;20113;-46
2022/04/09 08:24:00;;;;;;;4.10;1.42;;;;;;;;;;4974199;28;20035;-46
2022/04/09 08:26:26;;;;;;;4.05;1.80;;;;;;;;;;4976316;28;20035;-46
2022/04/09 08:28:51;;;;;;;8.50;2.03;;;24.20;92.50;;;;;;4974130;28;20454;-46
2022/04/09 08:31:17;;;;;;;4.20;1.60;;;24.00;91.50;;;;;;4976240;28;20062;-46
2022/04/09 08:33:43;;;;;;;3.42;1.77;;;23.90;91.80;;;;;;4941779;28;20053;-45
2022/04/09 08:36:09;;;;;;;4.65;1.60;;;23.80;91.70;;;;;;4976329;28;20113;-45
2022/04/09 08:38:35;;;;;;;4.07;1.70;;;23.70;91.10;;;;;;4974074;28;20126;-46
2022/04/09 08:41:03;;;;;;;4.68;1.90;;;23.70;91.40;;;;;;4973985;28;20034;-46
2022/04/09 08:43:30;;;;;;;3.35;2.00;;;23.50;91.70;;;;;;4976627;28;20106;-46
2022/04/09 08:46:00;;;;;;;3.50;1.55;;;23.20;91.50;;;;;;4976108;28;20053;-46
2022/04/09 08:48:26;;;;;;;5.13;2.10;;;22.90;91.20;;;;;;4976175;28;20097;-45
2022/04/09 08:50:53;;;;;;;3.53;1.35;;;22.80;92.30;;;;;;4971305;28;20043;-45
2022/04/09 08:53:19;;;;;;;3.90;1.25;;;22.70;91.90;;;;;;4976003;28;20135;-46
2022/04/09 08:55:46;;;;;;;7.45;1.42;;;22.50;91.30;;;;;;4976065;28;20065;-46
2022/04/09 08:58:12;;;;;;;3.10;1.33;;;22.50;92.60;;;;;;4976041;28;20465;-46
2022/04/09 09:00:39;;;;;;;3.92;1.15;;;22.50;91.00;;;;;;4975806;28;20026;-46
2022/04/09 09:03:10;;;;;;;7.10;1.67;;;22.60;92.50;;;;;;4975682;28;20169;-46
2022/04/09 09:05:40;;;;;;;5.10;1.70;;;22.80;92.10;;;;;;4976267;28;20034;-46
2022/04/09 09:08:10;;;;;;;4.50;1.40;;;22.90;92.00;;;;;;4975568;28;20342;-46
2022/04/09 09:10:37;;;;;;;6.88;3.38;;;22.90;91.50;;;;;;4975616;28;20114;-45
2022/04/09 09:13:10;;;;;;;4.95;2.17;;;23.10;91.50;;;;;;4975405;28;20659;-46
2022/04/09 09:15:52;;;;;;;2.25;1.40;;;23.40;90.60;;;;;;4971149;28;20031;-46
2022/04/09 09:18:28;;;;;;;5.30;1.52;;;23.60;91.60;;;;;;4971065;28;20026;-46
2022/04/09 09:20:58;;;;;;;2.35;1.00;;;;;;;;;;4974278;28;20031;-46
2022/04/09 09:23:25;;;;;;;1.77;0.95;;;23.80;89.00;;;;;;4956158;28;20042;-46
2022/04/09 09:25:53;;;;;;;5.43;1.35;;;23.90;89.30;;;;;;4974485;28;20081;-46
2022/04/09 09:28:36;;;;;;;5.85;1.55;;;24.00;90.60;;;;;;4970717;28;20016;-47
2022/04/09 09:31:04;;;;;;;5.57;1.50;;;;;;;;;;4967639;28;20027;-46
2022/04/09 09:33:30;;;;;;;2.60;1.52;;;;;;;;;;4960332;28;20108;-46
2022/04/09 09:36:00;;;;;;;4.97;1.48;;;;;;;;;;4974316;28;20071;-45
2022/04/09 09:38:27;;;;;;;3.83;1.92;;;;;;;;;;4972176;28;20035;-47
2022/04/09 09:40:54;;;;;;;3.63;1.50;;;;;;;;;;4972956;28;20502;-46
2022/04/09 09:43:22;;;;;;;3.22;1.95;;;24.20;93.00;;;;;;4974618;28;20035;-46
2022/04/09 09:45:50;;;;;;;3.15;1.20;;;24.20;90.70;;;;;;4974258;28;20038;-45
2022/04/09 09:48:27;;;;;;;4.03;1.60;;;24.10;91.10;;;;;;4956750;28;20043;-46
2022/04/09 09:50:56;;;;;;;4.40;1.20;;;24.00;89.00;;;;;;4956483;28;20031;-46
2022/04/09 09:53:36;;;;;;;9.15;5.38;;;23.80;90.40;;;;;;4974967;28;20035;-45
2022/04/09 09:56:03;;;;;;;3.13;1.38;;;23.80;91.10;;;;;;4974671;28;20112;-46
2022/04/09 09:58:31;;;;;;;3.50;1.60;;;23.80;91.60;;;;;;4956622;28;20038;-46
2022/04/09 10:00:58;;;;;;;5.25;1.67;;;23.80;90.80;;;;;;4974627;28;20027;-46
2022/04/09 10:03:25;;;;;;;4.88;1.50;;;23.90;90.90;;;;;;4974906;28;20026;-45
2022/04/09 10:05:53;;;;;;;5.82;1.67;;;23.90;91.10;;;;;;4924472;28;20050;-45
2022/04/09 10:08:20;;;;;;;5.93;1.40;;;24.00;91.60;;;;;;4974722;28;20037;-45
2022/04/09 10:10:50;;;;;;;4.10;1.30;;;24.00;90.80;;;;;;4974554;28;20407;-45
2022/04/09 10:13:21;;;;;;;3.95;1.60;;;24.00;90.60;;;;;;4974394;28;20057;-46
2022/04/09 10:15:50;;;;;;;3.97;1.20;;;23.90;90.90;;;;;;4972452;28;20038;-42
2022/04/09 10:18:25;;;;;;;4.45;2.70;;;24.00;88.90;;;;;;4974664;28;20035;-42
2022/04/09 10:20:57;;;;;;;3.97;1.38;;;;;;;;;;4973153;28;20035;-41
2022/04/09 10:23:24;;;;;;;4.20;1.35;;;24.30;85.80;;;;;;4974468;28;20039;-42
2022/04/09 10:25:52;;;;;;;2.72;1.40;;;24.30;86.80;;;;;;4974300;28;20031;-42
2022/04/09 10:28:36;;;;;;;3.72;1.50;;;24.30;86.00;;;;;;4955875;28;20117;-41
2022/04/09 10:31:21;;;;;;;2.08;1.08;;;24.40;86.40;;;;;;4974459;28;20034;-41
2022/04/09 10:33:54;;;;;;;2.53;1.40;;;24.40;85.10;;;;;;4971893;28;20065;-43
2022/04/09 10:36:40;;;;;;;5.10;1.40;;;24.30;85.80;;;;;;4974172;28;20027;-41
2022/04/09 10:39:40;;;;;;;1.30;0.90;;;24.30;88.70;;;;;;4973946;28;20035;-42
2022/04/09 10:42:07;;;;;;;2.67;1.60;;;;;;;;;;4973838;28;20027;-40
2022/04/09 10:44:48;;;;;;;4.10;1.67;;;24.60;85.90;;;;;;4974113;28;20027;-42
2022/04/09 10:47:15;;;;;;;3.65;1.50;;;;;;;;;;4973939;28;20166;-41
2022/04/09 10:49:42;;;;;;;5.53;1.50;;;25.40;99.90;;;;;;4973434;28;20082;-42
2022/04/09 10:52:11;;;;;;;4.38;1.30;;;;;;;;;;4973780;28;20031;-41
2022/04/09 10:54:37;;;;;;;3.50;1.50;;;;;;;;;;4973744;28;20031;-42
2022/04/09 10:57:22;;;;;;;2.05;1.08;;;;;;;;;;4971328;28;20039;-42
2022/04/09 10:59:56;;;;;;;3.70;1.08;;;;;;;;;;4954329;29;20077;-42
2022/04/09 11:02:24;;;;;;;4.10;2.28;;;;;;;;;;4954179;28;20482;-42
2022/04/09 11:04:50;;;;;;;2.97;1.40;;;;;;;;;;4954587;28;20031;-41
2022/04/09 11:07:17;;;;;;;4.07;1.25;;;;;;;;;;4954833;28;20051;-42
2022/04/09 11:09:43;;;;;;;5.72;1.20;;;;;;;;;;4971464;28;20046;-41
2022/04/09 11:12:10;;;;;;;3.47;1.42;;;;;;;;;;4970882;28;20035;-42
2022/04/09 11:14:49;;;;;;;3.22;1.20;;;25.50;99.90;;;;;;4973337;28;20391;-42
2022/04/09 11:17:24;;;;;;;4.47;1.40;;;25.10;81.90;;;;;;4973121;28;20035;-41
2022/04/09 11:19:50;;;;;;;3.00;1.10;;;25.00;82.40;;;;;;4973221;28;20045;-42
2022/04/09 11:22:17;;;;;;;3.08;1.05;;;25.00;81.30;;;;;;4973338;28;20072;-41
2022/04/09 11:24:43;;;;;;;4.32;1.30;;;25.00;81.20;;;;;;4973509;28;20391;-42
2022/04/09 11:27:12;;;;;;;7.72;1.70;;;24.90;82.10;;;;;;4970162;28;20026;-41
2022/04/09 11:29:40;;;;;;;2.15;1.00;;;24.90;82.50;;;;;;4972482;28;20038;-41
2022/04/09 11:32:15;;;;;;;1.08;0.75;;;24.80;82.00;;;;;;4972553;28;20038;-41
2022/04/09 11:34:51;;;;;;;1.77;0.70;;;24.60;82.60;;;;;;4973185;28;20424;-41
2022/04/09 11:37:17;;;;;;;1.67;1.00;;;24.50;95.50;;;;;;4971303;28;20041;-40
2022/04/09 11:39:46;;;;;;;3.60;1.13;;;24.20;82.60;;;;;;4970767;28;20030;-41
2022/04/09 11:42:12;;;;;;;4.53;1.73;;;23.90;98.60;;;;;;4970214;28;20102;-41
2022/04/09 11:44:41;;;;;;;3.22;1.27;;;23.60;83.10;;;;;;4951768;29;20039;-41
2022/04/09 11:47:09;;;;;;;6.82;1.38;;;23.40;83.90;;;;;;4953224;28;20114;-41
2022/04/09 11:49:35;;;;;;;2.13;1.30;;;23.30;83.60;;;;;;4938144;28;20054;-41
2022/04/09 11:52:01;;;;;;;2.53;0.88;;;23.20;84.90;;;;;;4973841;28;20063;-40
2022/04/09 11:54:38;;;;;;;5.22;1.13;;;23.20;84.40;;;;;;4974720;28;20136;-41
2022/04/09 11:57:11;;;;;;;2.13;0.98;;;23.10;83.50;;;;;;4976433;28;20030;-42
2022/04/09 11:59:38;;;;;;;2.97;1.02;;;23.10;85.70;;;;;;4976620;28;20035;-40
2022/04/09 12:02:15;;;;;;;2.92;1.00;;;22.90;85.40;;;;;;4974846;28;20042;-41
2022/04/09 12:04:41;;;;;;;3.10;1.38;;;22.90;85.80;;;;;;4959402;28;20035;-41
2022/04/09 12:07:08;;;;;;;3.55;0.90;;;22.80;85.10;;;;;;4976617;28;20055;-41
2022/04/09 12:09:34;;;;;;;3.15;1.20;;;22.70;94.90;;;;;;4942264;28;20034;-42
2022/04/09 12:12:02;;;;;;;4.25;1.23;;;22.50;86.60;;;;;;4976750;28;20034;-41
2022/04/09 12:14:28;;;;;;;2.80;1.00;;;22.50;84.60;;;;;;4957934;28;20092;-41
2022/04/09 12:16:55;;;;;;;2.50;1.30;;;22.50;85.30;;;;;;4964070;28;20479;-40
2022/04/09 12:19:31;;;;;;;2.17;0.90;;;22.50;85.20;;;;;;4975965;28;20130;-41
2022/04/09 12:22:22;;;;;;;2.90;0.90;;;22.50;85.30;;;;;;4957749;28;20482;-41
2022/04/09 12:24:59;;;;;;;3.33;1.55;;;22.50;85.60;;;;;;4975950;28;20038;-42
2022/04/09 12:27:44;;;;;;;2.03;0.80;;;22.60;85.60;;;;;;4974255;28;20035;-40
2022/04/09 12:30:12;;;;;;;0.95;0.70;;;22.70;86.00;;;;;;4974871;28;20035;-41
2022/04/09 12:32:39;;;;;;;5.70;1.80;;;22.70;85.50;;;;;;4976207;28;20035;-40
2022/04/09 12:35:12;;;;;;;5.32;1.50;;;22.70;84.80;;;;;;4976229;28;20121;-41
2022/04/09 12:37:52;;;;;;;2.45;1.15;;;22.70;85.70;;;;;;4974038;28;20031;-41
2022/04/09 12:40:23;;;;;;;2.20;1.08;;;22.80;85.40;;;;;;4958418;28;20034;-42
2022/04/09 12:42:49;;;;;;;5.75;1.90;;;22.80;85.10;;;;;;4975600;28;20392;-40
2022/04/09 12:45:21;;;;;;;2.63;1.27;;;22.80;84.70;;;;;;4974726;28;20604;-41
2022/04/09 12:48:01;;;;;;;2.08;1.38;;;22.80;84.30;;;;;;4942487;28;20062;-40
2022/04/09 12:50:35;;;;;;;5.68;1.40;;;22.70;84.10;;;;;;4973858;28;20039;-42
2022/04/09 12:53:05;;;;;;;4.47;1.30;;;22.70;86.00;;;;;;4922055;29;20039;-41
2022/04/09 12:55:31;;;;;;;5.50;1.45;;;22.60;85.40;;;;;;4938068;29;20500;-40